Time;durP1;ratioP1;P1;durP2;ratioP2;P2;SDS_P1;SDS_P2;PMS_P1;PMS_P2;Temp;Humidity;BMP_temperature;BMP_pressure;BME280_temperature;BME280_humidity;BME280_pressure;Samples;Min_cycle;Max_cycle;Signal;HPM_P1;HPM_P2
2022/08/20 00:01:44;;;;;;;;;;;;;;;20.17;69.54;101077.78;5018588;28;20377;-77
2022/08/20 00:04:10;;;;;;;;;;;;;;;20.14;69.84;101073.53;5011011;28;20391;-77
2022/08/20 00:06:35;;;;;;;;;;;;;;;20.14;69.80;101078.78;5029301;28;20019;-77
2022/08/20 00:09:00;;;;;;;;;;;;;;;20.17;69.70;101075.13;5027032;28;19967;-77
2022/08/20 00:11:26;;;;;;;;;;;;;;;20.12;70.10;101072.72;5020630;28;19921;-77
2022/08/20 00:13:54;;;;;;;;;;;;;;;20.15;70.12;101075.19;5026883;28;19925;-77
2022/08/20 00:16:20;;;;;;;;;;;;;;;20.13;69.97;101069.16;5042135;28;19913;-77
2022/08/20 00:18:46;;;;;;;;;;;;;;;20.10;70.53;101074.63;5044771;28;20620;-77
2022/08/20 00:21:13;;;;;;;;;;;;;;;20.06;70.72;101073.03;5051145;28;19924;-77
2022/08/20 00:23:40;;;;;;;;;;;;;;;20.08;70.50;101068.59;5040242;28;19925;-78
2022/08/20 00:26:06;;;;;;;;;;;;;;;20.15;70.11;101074.34;5042118;28;19943;-78
2022/08/20 00:28:31;;;;;;;;;;;;;;;20.07;70.62;101074.75;5038644;28;20386;-78
2022/08/20 00:30:56;;;;;;;;;;;;;;;20.08;71.12;101070.38;5047235;28;20011;-78
2022/08/20 00:33:23;;;;;;;;;;;;;;;20.11;71.38;101073.69;5028817;28;19931;-78
2022/08/20 00:35:52;;;;;;;;;;;;;;;20.06;72.24;101074.81;5040927;28;20320;-78
2022/08/20 00:38:18;;;;;;;;;;;;;;;19.98;72.98;101067.34;5038569;28;20030;-78
2022/08/20 00:40:45;;;;;;;;;;;;;;;20.01;72.55;101076.88;5045794;28;20392;-77
2022/08/20 00:43:28;;;;;;;;;;;;;;;19.96;73.07;101074.50;5040757;28;20401;-77
2022/08/20 00:45:56;;;;;;;;;;;;;;;19.92;73.09;101074.75;5039499;28;19917;-77
2022/08/20 00:48:22;;;;;;;;;;;;;;;19.93;72.65;101079.94;5029196;28;19925;-77
2022/08/20 00:50:47;;;;;;;;;;;;;;;19.86;72.75;101089.09;5028265;28;19925;-77
2022/08/20 00:53:14;;;;;;;;;;;;;;;19.83;72.18;101086.63;5027527;28;20377;-77
2022/08/20 00:55:40;;;;;;;;;;;;;;;19.79;72.40;101090.38;5042895;28;20301;-77
2022/08/20 00:58:07;;;;;;;;;;;;;;;19.79;72.45;101091.22;5020910;28;19925;-77
2022/08/20 01:00:43;;;;;;;;;;;;;;;19.77;72.05;101090.47;5027128;28;19936;-77
2022/08/20 01:03:10;;;;;;;;;;;;;;;19.81;71.69;101091.16;5027196;28;19927;-77
2022/08/20 01:05:39;;;;;;;;;;;;;;;19.74;71.36;101090.63;5023853;28;19936;-77
2022/08/20 01:08:05;;;;;;;;;;;;;;;19.73;71.54;101086.28;5017879;28;19926;-77
2022/08/20 01:10:35;;;;;;;;;;;;;;;19.72;71.72;101089.00;5019160;28;19917;-77
2022/08/20 01:13:03;;;;;;;;;;;;;;;19.69;72.07;101089.19;5010337;28;20363;-77
2022/08/20 01:15:30;;;;;;;;;;;;;;;19.59;72.59;101088.81;5021211;28;20018;-77
2022/08/20 01:17:59;;;;;;;;;;;;;;;19.64;72.82;101088.59;5029545;28;19932;-77
2022/08/20 01:20:24;;;;;;;;;;;;;;;19.64;74.37;101081.50;5026674;28;19929;-77
2022/08/20 01:25:40;;;;;;;;;;;;;;;19.54;74.75;101082.09;5045859;28;19916;-78
2022/08/20 01:28:06;;;;;;;;;;;;;;;19.54;74.42;101072.41;5045367;28;19932;-78
2022/08/20 01:30:32;;;;;;;;;;;;;;;19.57;73.43;101076.66;5047110;28;19958;-78
2022/08/20 01:32:58;;;;;;;;;;;;;;;19.55;74.12;101070.63;5046590;28;19971;-77
2022/08/20 01:35:24;;;;;;;;;;;;;;;19.51;74.89;101077.84;5053143;28;19975;-77
2022/08/20 01:37:49;;;;;;;;;;;;;;;19.48;75.70;101070.09;5045408;28;19980;-77
2022/08/20 01:40:19;;;;;;;;;;;;;;;19.48;75.29;101059.56;5041765;28;20348;-77
2022/08/20 01:42:47;;;;;;;;;;;;;;;19.41;74.95;101062.56;5020791;28;19921;-77
2022/08/20 01:45:12;;;;;;;;;;;;;;;19.44;74.79;101065.91;5039035;28;19928;-77
2022/08/20 01:47:38;;;;;;;;;;;;;;;19.46;73.87;101064.03;5047677;28;19921;-77
2022/08/20 01:50:06;;;;;;;;;;;;;;;19.41;74.89;101059.94;5041338;28;20061;-77
2022/08/20 01:52:40;;;;;;;;;;;;;;;19.36;74.80;101064.59;5014785;28;19925;-77
2022/08/20 01:55:06;;;;;;;;;;;;;;;19.39;74.44;101070.56;4997400;28;19956;-77
2022/08/20 01:57:33;;;;;;;;;;;;;;;19.40;74.24;101076.69;5024535;28;20457;-77
2022/08/20 02:00:00;;;;;;;;;;;;;;;19.41;73.26;101079.25;5025441;28;19994;-77
2022/08/20 02:02:26;;;;;;;;;;;;;;;19.44;73.26;101086.13;5031222;28;19916;-77
2022/08/20 02:04:51;;;;;;;;;;;;;;;19.38;73.03;101082.03;5020299;28;19929;-77
2022/08/20 02:07:19;;;;;;;;;;;;;;;19.35;72.81;101091.88;5012338;28;20011;-77
2022/08/20 02:09:44;;;;;;;;;;;;;;;19.42;72.71;101088.00;5019069;28;20451;-77
2022/08/20 02:12:10;;;;;;;;;;;;;;;19.41;72.27;101096.81;5025588;28;19925;-77
2022/08/20 02:14:41;;;;;;;;;;;;;;;19.32;72.92;101082.34;5016216;28;19921;-77
2022/08/20 02:17:06;;;;;;;;;;;;;;;19.19;73.28;101076.00;5019633;28;20498;-77
2022/08/20 02:19:38;;;;;;;;;;;;;;;19.29;73.09;101077.25;5020657;28;19910;-77
2022/08/20 02:22:07;;;;;;;;;;;;;;;19.26;73.74;101074.75;5016023;28;19925;-77
2022/08/20 02:24:34;;;;;;;;;;;;;;;19.20;73.81;101068.00;5021114;28;19921;-77
2022/08/20 02:26:59;;;;;;;;;;;;;;;19.21;73.96;101072.34;5028846;28;20440;-76
2022/08/20 02:29:25;;;;;;;;;;;;;;;19.22;73.82;101075.84;5051312;28;20385;-77
2022/08/20 02:31:50;;;;;;;;;;;;;;;19.21;74.04;101076.75;5044870;28;20440;-77
2022/08/20 02:34:15;;;;;;;;;;;;;;;19.16;73.94;101077.00;5046658;28;19986;-77
2022/08/20 02:36:42;;;;;;;;;;;;;;;19.17;74.03;101077.84;5040339;28;19925;-77
2022/08/20 02:39:10;;;;;;;;;;;;;;;19.14;74.04;101080.63;5043337;28;20020;-77
2022/08/20 02:41:36;;;;;;;;;;;;;;;19.15;74.18;101085.84;5032954;28;19928;-77
2022/08/20 02:44:01;;;;;;;;;;;;;;;19.15;74.24;101080.56;5039129;28;19921;-77
2022/08/20 02:46:27;;;;;;;;;;;;;;;19.17;74.25;101093.66;5032869;28;19925;-77
2022/08/20 02:48:53;;;;;;;;;;;;;;;19.16;74.51;101092.78;5041564;28;20406;-77
2022/08/20 02:51:18;;;;;;;;;;;;;;;19.22;74.19;101097.75;5040461;28;19929;-77
2022/08/20 02:53:43;;;;;;;;;;;;;;;19.20;74.32;101099.63;5034244;28;19960;-77
2022/08/20 02:56:10;;;;;;;;;;;;;;;19.22;74.36;101102.19;5039111;28;19929;-77
2022/08/20 02:58:36;;;;;;;;;;;;;;;19.25;73.63;101094.94;5038898;28;19987;-77
2022/08/20 03:01:03;;;;;;;;;;;;;;;19.24;74.42;101113.47;5038367;28;19928;-77
2022/08/20 03:03:28;;;;;;;;;;;;;;;19.16;74.60;101100.69;5033956;28;19928;-77
2022/08/20 03:05:56;;;;;;;;;;;;;;;19.20;73.91;101094.34;5039021;28;19924;-77
2022/08/20 03:08:22;;;;;;;;;;;;;;;19.22;74.50;101089.84;5047179;28;19921;-77
2022/08/20 03:10:48;;;;;;;;;;;;;;;19.19;74.19;101087.38;5038132;28;19928;-77
2022/08/20 03:13:14;;;;;;;;;;;;;;;19.26;74.20;101088.75;5035548;28;19929;-77
2022/08/20 03:15:41;;;;;;;;;;;;;;;19.30;73.87;101086.84;5032790;28;20467;-77
2022/08/20 03:18:07;;;;;;;;;;;;;;;19.29;73.94;101082.50;5041251;28;20368;-77
2022/08/20 03:20:32;;;;;;;;;;;;;;;19.29;73.83;101082.50;5037522;28;19917;-77
2022/08/20 03:22:57;;;;;;;;;;;;;;;19.26;74.10;101083.50;5042088;28;19932;-77
2022/08/20 03:25:23;;;;;;;;;;;;;;;19.26;74.26;101086.13;5039177;28;20079;-77
2022/08/20 03:27:49;;;;;;;;;;;;;;;19.31;74.34;101085.94;5033097;28;19963;-77
2022/08/20 03:30:15;;;;;;;;;;;;;;;19.28;74.08;101086.09;5023658;28;19936;-77
2022/08/20 03:32:40;;;;;;;;;;;;;;;19.26;74.61;101080.88;5044587;28;19925;-78
2022/08/20 03:35:07;;;;;;;;;;;;;;;19.26;75.11;101088.75;5027362;28;19920;-78
2022/08/20 03:37:34;;;;;;;;;;;;;;;19.26;74.63;101080.00;5023660;28;20408;-78
2022/08/20 03:39:59;;;;;;;;;;;;;;;19.27;74.98;101086.97;5034073;28;19925;-78
2022/08/20 03:42:26;;;;;;;;;;;;;;;19.24;75.13;101085.38;5035246;28;20301;-78
2022/08/20 03:44:51;;;;;;;;;;;;;;;19.29;74.89;101087.78;5042872;28;21036;-78
2022/08/20 03:47:16;;;;;;;;;;;;;;;19.28;75.08;101077.31;5041667;28;19929;-78
2022/08/20 03:49:42;;;;;;;;;;;;;;;19.26;74.89;101080.88;5034788;28;19921;-78
2022/08/20 03:52:07;;;;;;;;;;;;;;;19.25;74.96;101084.41;5007531;28;19917;-78
2022/08/20 03:54:32;;;;;;;;;;;;;;;19.26;74.98;101083.50;5036202;28;20650;-78
2022/08/20 03:56:58;;;;;;;;;;;;;;;19.26;74.40;101078.22;5037567;28;20378;-78
2022/08/20 03:59:24;;;;;;;;;;;;;;;19.26;74.64;101078.22;5038058;28;19936;-78
2022/08/20 04:01:49;;;;;;;;;;;;;;;19.22;74.80;101074.03;5047027;28;19921;-77
2022/08/20 04:04:15;;;;;;;;;;;;;;;19.22;75.00;101079.31;5020351;28;20007;-77
2022/08/20 04:06:40;;;;;;;;;;;;;;;19.23;75.38;101077.53;5028845;28;20274;-77
2022/08/20 04:09:05;;;;;;;;;;;;;;;19.28;75.09;101083.47;5046295;28;19925;-77
2022/08/20 04:11:32;;;;;;;;;;;;;;;19.29;75.19;101081.66;5037131;28;20548;-77
2022/08/20 04:13:57;;;;;;;;;;;;;;;19.32;75.06;101086.75;5042995;28;19980;-77
2022/08/20 04:16:23;;;;;;;;;;;;;;;19.27;75.23;101079.09;5048553;28;19967;-77
2022/08/20 04:18:48;;;;;;;;;;;;;;;19.22;75.52;101084.56;5011962;28;20020;-77
2022/08/20 04:21:15;;;;;;;;;;;;;;;19.26;74.65;101080.00;5040530;28;19960;-77
2022/08/20 04:23:40;;;;;;;;;;;;;;;19.26;74.77;101083.50;5034399;28;19921;-77
2022/08/20 04:26:05;;;;;;;;;;;;;;;19.28;75.12;101091.38;5041700;28;20009;-77
2022/08/20 04:28:32;;;;;;;;;;;;;;;19.28;75.03;101083.47;5048478;28;19917;-77
2022/08/20 04:30:58;;;;;;;;;;;;;;;19.28;75.13;101095.75;5045664;28;19923;-77
2022/08/20 04:33:25;;;;;;;;;;;;;;;19.24;74.91;101097.69;5045696;28;19928;-77
2022/08/20 04:35:51;;;;;;;;;;;;;;;19.28;75.16;101098.38;5042392;28;19921;-77
2022/08/20 04:38:17;;;;;;;;;;;;;;;19.32;74.82;101102.56;5022688;28;19927;-77
2022/08/20 04:40:52;;;;;;;;;;;;;;;19.15;75.60;101111.31;5032910;28;19929;-77
2022/08/20 04:43:18;;;;;;;;;;;;;;;19.21;75.33;101111.00;5035093;28;19960;-77
2022/08/20 04:45:45;;;;;;;;;;;;;;;19.17;75.87;101112.09;5041147;28;19928;-77
2022/08/20 04:48:11;;;;;;;;;;;;;;;19.15;75.94;101112.19;5040967;28;19931;-77
2022/08/20 04:50:37;;;;;;;;;;;;;;;19.20;75.68;101119.81;5038600;28;19924;-77
2022/08/20 04:53:03;;;;;;;;;;;;;;;19.19;75.62;101118.97;5040143;28;20618;-77
2022/08/20 04:55:29;;;;;;;;;;;;;;;19.24;75.79;101119.59;5038287;28;19913;-77
2022/08/20 04:57:56;;;;;;;;;;;;;;;19.27;75.76;101126.50;5042579;28;19921;-77
2022/08/20 05:00:22;;;;;;;;;;;;;;;19.18;75.93;101127.81;5038288;28;19927;-77
2022/08/20 05:02:48;;;;;;;;;;;;;;;19.26;75.87;101137.94;5027995;28;19925;-77
2022/08/20 05:05:13;;;;;;;;;;;;;;;19.22;75.90;101137.25;5036793;28;19925;-77
2022/08/20 05:07:40;;;;;;;;;;;;;;;19.22;76.12;101137.25;5040671;28;19920;-77
2022/08/20 05:10:06;;;;;;;;;;;;;;;19.21;75.94;101135.56;5043308;28;19974;-77
2022/08/20 05:12:31;;;;;;;;;;;;;;;19.28;75.79;101141.41;5040915;28;20378;-77
2022/08/20 05:14:57;;;;;;;;;;;;;;;19.28;75.90;101145.78;5042695;28;19925;-77
2022/08/20 05:17:23;;;;;;;;;;;;;;;19.32;76.05;101145.56;5039917;28;19921;-77
2022/08/20 05:19:50;;;;;;;;;;;;;;;19.34;76.14;101140.25;5037227;28;19920;-77
2022/08/20 05:22:17;;;;;;;;;;;;;;;19.29;76.18;101148.38;5044342;28;19917;-77
2022/08/20 05:24:42;;;;;;;;;;;;;;;19.05;77.54;101146.94;5039165;28;20544;-77
2022/08/20 05:27:08;;;;;;;;;;;;;;;19.18;77.12;101156.78;5036838;28;20027;-77
2022/08/20 05:29:33;;;;;;;;;;;;;;;19.04;77.73;101155.78;5029070;28;20011;-77
2022/08/20 05:31:58;;;;;;;;;;;;;;;19.16;77.61;101160.44;5038510;28;20104;-77
2022/08/20 05:34:25;;;;;;;;;;;;;;;19.21;77.55;101164.53;5042345;28;19921;-77
2022/08/20 05:36:50;;;;;;;;;;;;;;;19.25;77.56;101162.59;5025322;28;19933;-77
2022/08/20 05:39:17;;;;;;;;;;;;;;;19.24;76.74;101168.78;5033877;28;20086;-77
2022/08/20 05:41:42;;;;;;;;;;;;;;;19.01;75.82;101158.56;5040063;28;19920;-77
2022/08/20 05:44:11;;;;;;;;;;;;;;;19.16;75.46;101163.91;5022910;28;19990;-77
2022/08/20 05:46:41;;;;;;;;;;;;;;;19.20;75.45;101157.56;5040308;28;20019;-77
2022/08/20 05:49:08;;;;;;;;;;;;;;;19.14;75.03;101170.19;5037042;28;20019;-77
2022/08/20 05:51:35;;;;;;;;;;;;;;;19.18;75.02;101163.84;5040994;28;20655;-77
2022/08/20 05:54:00;;;;;;;;;;;;;;;19.15;75.25;101166.63;5033335;28;19925;-77
2022/08/20 05:56:28;;;;;;;;;;;;;;;19.14;74.72;101171.03;5026326;28;20514;-77
2022/08/20 05:58:54;;;;;;;;;;;;;;;19.15;74.71;101166.63;5022785;28;19973;-77
2022/08/20 06:01:19;;;;;;;;;;;;;;;19.10;74.84;101168.66;5007969;28;19963;-77
2022/08/20 06:06:29;;;;;;;;;;;;;;;18.84;74.54;101182.25;5036876;28;19928;-77
2022/08/20 06:08:55;;;;;;;;;;;;;;;19.07;73.80;101172.28;5044075;28;20355;-78
2022/08/20 06:11:21;;;;;;;;;;;;;;;19.12;73.35;101167.63;5035787;28;20024;-78
2022/08/20 06:13:47;;;;;;;;;;;;;;;18.91;73.86;101178.38;5023778;28;19976;-78
2022/08/20 06:16:12;;;;;;;;;;;;;;;19.11;72.96;101175.59;5022110;28;19967;-78
2022/08/20 06:18:37;;;;;;;;;;;;;;;19.03;73.12;101183.88;5038361;28;19924;-78
2022/08/20 06:21:03;;;;;;;;;;;;;;;19.12;72.31;101183.44;5031510;28;20312;-78
2022/08/20 06:23:28;;;;;;;;;;;;;;;19.11;72.06;101181.72;5046882;28;19920;-78
2022/08/20 06:25:53;;;;;;;;;;;;;;;19.12;72.12;101185.22;5041631;28;20031;-77
2022/08/20 06:28:19;;;;;;;;;;;;;;;19.15;72.38;101188.53;5035657;28;19933;-77
2022/08/20 06:30:44;;;;;;;;;;;;;;;19.21;71.36;101192.66;5038455;28;20354;-77
2022/08/20 06:33:09;;;;;;;;;;;;;;;18.92;71.17;101191.47;5043749;28;19983;-77
2022/08/20 06:35:36;;;;;;;;;;;;;;;19.08;70.44;101197.66;5044099;28;19978;-78
2022/08/20 06:38:04;;;;;;;;;;;;;;;19.10;69.84;101202.88;5043619;28;19929;-78
2022/08/20 06:40:30;;;;;;;;;;;;;;;19.16;70.50;101194.69;5038419;28;19925;-78
2022/08/20 06:42:56;;;;;;;;;;;;;;;19.26;69.50;101198.53;5035531;28;19925;-78
2022/08/20 06:45:26;;;;;;;;;;;;;;;19.24;69.42;101197.78;5045703;28;19952;-78
2022/08/20 06:47:54;;;;;;;;;;;;;;;19.23;69.97;101206.59;5037062;28;19932;-78
2022/08/20 06:50:21;;;;;;;;;;;;;;;19.28;69.70;101204.63;5031984;28;19925;-78
2022/08/20 06:52:46;;;;;;;;;;;;;;;19.28;70.03;101202.00;5025684;28;19927;-78
2022/08/20 06:55:14;;;;;;;;;;;;;;;19.11;69.30;101207.19;5024385;28;20291;-78
2022/08/20 06:57:39;;;;;;;;;;;;;;;19.22;68.31;101208.38;5025111;28;19921;-78
2022/08/20 07:00:10;;;;;;;;;;;;;;;19.25;67.32;101210.03;5016662;28;19921;-78
2022/08/20 07:02:36;;;;;;;;;;;;;;;19.10;67.46;101211.63;5018525;28;19925;-78
2022/08/20 07:05:02;;;;;;;;;;;;;;;19.16;67.34;101213.94;5031669;28;22054;-78
2022/08/20 07:07:27;;;;;;;;;;;;;;;19.03;66.96;101215.50;5036681;28;19921;-78
2022/08/20 07:10:09;;;;;;;;;;;;;;;19.17;67.40;101212.16;5036741;28;19929;-78
2022/08/20 07:12:35;;;;;;;;;;;;;;;19.21;67.48;101214.59;5048373;28;20016;-78
2022/08/20 07:15:04;;;;;;;;;;;;;;;19.18;67.11;101221.78;5041310;28;20341;-77
2022/08/20 07:17:30;;;;;;;;;;;;;;;19.21;66.59;101224.25;5037154;28;20374;-77
2022/08/20 07:19:55;;;;;;;;;;;;;;;19.23;65.97;101225.03;5044778;28;19928;-77
2022/08/20 07:22:20;;;;;;;;;;;;;;;19.23;66.01;101222.41;5043203;28;19936;-77
2022/08/20 07:24:46;;;;;;;;;;;;;;;18.94;66.57;101218.56;5025852;28;19924;-77
2022/08/20 07:27:11;;;;;;;;;;;;;;;19.03;66.16;101219.91;5023220;28;20397;-77
2022/08/20 07:32:35;;;;;;;;;;;;;;;19.01;66.16;101219.13;5022053;28;20436;-77
2022/08/20 07:35:05;;;;;;;;;;;;;;;19.08;66.75;101225.78;5026815;28;20354;-77
2022/08/20 07:37:31;;;;;;;;;;;;;;;19.18;66.46;101230.53;5036762;28;19928;-77
2022/08/20 07:39:56;;;;;;;;;;;;;;;19.21;65.95;101229.53;5038475;28;19928;-77
2022/08/20 07:42:22;;;;;;;;;;;;;;;19.12;66.24;101233.47;5035969;28;19924;-77
2022/08/20 07:44:47;;;;;;;;;;;;;;;19.10;66.09;101229.22;5045307;28;19932;-77
2022/08/20 07:47:16;;;;;;;;;;;;;;;19.20;65.95;101226.03;5040273;28;20394;-78
2022/08/20 07:49:41;;;;;;;;;;;;;;;19.13;65.88;101231.69;5036143;28;20398;-78
2022/08/20 07:52:07;;;;;;;;;;;;;;;19.19;66.50;101221.69;5034349;28;19928;-78
2022/08/20 07:54:34;;;;;;;;;;;;;;;19.24;66.07;101229.38;5044966;28;19921;-78
2022/08/20 07:57:03;;;;;;;;;;;;;;;19.25;65.36;101228.47;5034633;28;19927;-79
2022/08/20 07:59:28;;;;;;;;;;;;;;;19.26;65.17;101228.38;5034163;28;19932;-79
2022/08/20 08:01:53;;;;;;;;;;;;;;;19.29;65.64;101235.28;5039287;28;19921;-79
2022/08/20 08:04:19;;;;;;;;;;;;;;;19.19;65.55;101236.66;5033484;28;19948;-79
2022/08/20 08:06:44;;;;;;;;;;;;;;;19.23;64.75;101238.19;5034673;28;19925;-79
2022/08/20 08:09:11;;;;;;;;;;;;;;;19.25;64.55;101237.19;5023903;28;19964;-79
2022/08/20 08:11:39;;;;;;;;;;;;;;;19.21;65.43;101240.91;5025423;28;19925;-79
2022/08/20 08:14:06;;;;;;;;;;;;;;;19.32;65.15;101239.56;5037870;28;19984;-79
2022/08/20 08:16:33;;;;;;;;;;;;;;;19.34;65.71;101235.09;5018571;28;19949;-79
2022/08/20 08:19:00;;;;;;;;;;;;;;;19.25;65.21;101242.44;5022235;28;19925;-78
2022/08/20 08:21:26;;;;;;;;;;;;;;;19.26;64.65;101244.16;5018837;28;19973;-78
2022/08/20 08:23:52;;;;;;;;;;;;;;;19.36;64.41;101238.47;5021387;28;19968;-78
2022/08/20 08:26:18;;;;;;;;;;;;;;;19.42;65.02;101233.75;5026417;28;20378;-78
2022/08/20 08:28:44;;;;;;;;;;;;;;;19.36;64.37;101236.69;5032230;28;20316;-79
2022/08/20 08:31:10;;;;;;;;;;;;;;;19.42;63.98;101236.41;5026095;28;19921;-79
2022/08/20 08:33:35;;;;;;;;;;;;;;;19.28;64.52;101244.16;5035327;28;19925;-79
2022/08/20 08:36:03;;;;;;;;;;;;;;;19.32;64.59;101240.41;5028631;28;19928;-79
2022/08/20 08:38:30;;;;;;;;;;;;;;;19.38;63.92;101242.75;5025258;28;19928;-79
2022/08/20 08:40:56;;;;;;;;;;;;;;;19.34;64.09;101253.53;5024742;28;19924;-79
2022/08/20 08:43:24;;;;;;;;;;;;;;;19.36;64.26;101231.44;5020606;28;20386;-79
2022/08/20 08:45:55;;;;;;;;;;;;;;;19.47;64.64;101244.06;5019523;28;19931;-79
2022/08/20 08:48:21;;;;;;;;;;;;;;;19.49;64.44;101250.13;5026658;28;19976;-78
2022/08/20 08:50:49;;;;;;;;;;;;;;;19.44;64.17;101252.13;5025281;28;19925;-78
2022/08/20 08:53:19;;;;;;;;;;;;;;;19.52;63.99;101252.59;5024648;28;19990;-78
2022/08/20 08:55:45;;;;;;;;;;;;;;;19.46;64.31;101255.56;5019416;28;19921;-78
2022/08/20 08:58:10;;;;;;;;;;;;;;;19.46;63.80;101245.84;5038425;28;19928;-78
2022/08/20 09:00:35;;;;;;;;;;;;;;;19.49;64.43;101264.13;5040994;28;20008;-77
2022/08/20 09:03:01;;;;;;;;;;;;;;;19.43;64.22;101264.44;5039772;28;20420;-78
2022/08/20 09:05:30;;;;;;;;;;;;;;;19.53;63.83;101268.31;5038033;28;19917;-78
2022/08/20 09:07:56;;;;;;;;;;;;;;;19.55;64.04;101276.16;5016973;28;19928;-78
2022/08/20 09:10:22;;;;;;;;;;;;;;;19.53;63.96;101263.06;5020852;28;20408;-78
2022/08/20 09:12:47;;;;;;;;;;;;;;;19.61;63.60;101276.69;5029393;28;20441;-78
2022/08/20 09:15:12;;;;;;;;;;;;;;;19.58;63.46;101282.13;5019391;28;19980;-78
2022/08/20 09:17:37;;;;;;;;;;;;;;;19.61;63.32;101284.59;5012828;28;20678;-78
2022/08/20 09:20:03;;;;;;;;;;;;;;;19.64;63.17;101283.63;5023461;28;20398;-78
2022/08/20 09:22:29;;;;;;;;;;;;;;;19.50;63.72;101289.56;5029277;28;19909;-78
2022/08/20 09:24:55;;;;;;;;;;;;;;;19.56;63.09;101283.13;5027401;28;19971;-78
2022/08/20 09:27:20;;;;;;;;;;;;;;;19.62;62.65;101286.31;5037832;28;20245;-78
2022/08/20 09:29:45;;;;;;;;;;;;;;;19.60;62.39;101290.81;5037539;28;19925;-78
2022/08/20 09:32:18;;;;;;;;;;;;;;;19.46;62.63;101282.72;5033673;28;19921;-78
2022/08/20 09:34:45;;;;;;;;;;;;;;;19.62;62.57;101291.59;5016427;28;19971;-78
2022/08/20 09:37:11;;;;;;;;;;;;;;;19.56;62.27;101286.63;5024185;28;19932;-78
2022/08/20 09:39:37;;;;;;;;;;;;;;;19.56;62.78;101286.63;5039262;28;19928;-78
2022/08/20 09:42:09;;;;;;;;;;;;;;;19.67;62.40;101275.53;5034276;28;19925;-78
2022/08/20 09:44:35;;;;;;;;;;;;;;;19.72;62.77;101278.81;5023785;28;19925;-78
2022/08/20 09:47:00;;;;;;;;;;;;;;;19.76;62.63;101275.91;5042219;28;20638;-79
2022/08/20 09:49:25;;;;;;;;;;;;;;;19.69;63.05;101276.31;5039559;28;19960;-79
2022/08/20 09:51:51;;;;;;;;;;;;;;;19.70;63.02;101285.91;5043118;28;20278;-79
2022/08/20 09:54:16;;;;;;;;;;;;;;;19.77;62.81;101279.41;5035991;28;20020;-79
2022/08/20 09:56:41;;;;;;;;;;;;;;;19.79;62.23;101286.31;5046190;28;19927;-79
2022/08/20 09:59:07;;;;;;;;;;;;;;;19.72;61.32;101281.44;5020036;28;20274;-79
2022/08/20 10:01:32;;;;;;;;;;;;;;;19.88;61.47;101287.63;5041362;28;19916;-79
2022/08/20 10:03:58;;;;;;;;;;;;;;;19.75;60.60;101283.91;5022155;28;19960;-79
2022/08/20 10:06:24;;;;;;;;;;;;;;;19.78;61.25;101287.25;5026019;28;19928;-79
2022/08/20 10:08:49;;;;;;;;;;;;;;;19.83;61.28;101280.88;5033611;28;19920;-78
2022/08/20 10:11:15;;;;;;;;;;;;;;;19.88;61.46;101277.06;5037035;28;19940;-78
2022/08/20 10:13:40;;;;;;;;;;;;;;;19.85;61.02;101281.69;5032768;28;19925;-78
2022/08/20 10:16:05;;;;;;;;;;;;;;;19.93;60.71;101287.41;5039188;28;19924;-78
2022/08/20 10:18:31;;;;;;;;;;;;;;;19.88;61.16;101292.88;5021698;28;19972;-79
2022/08/20 10:20:56;;;;;;;;;;;;;;;19.89;61.23;101284.06;5022819;28;20007;-79
2022/08/20 10:23:22;;;;;;;;;;;;;;;19.98;61.69;101288.84;5040657;28;19925;-80
2022/08/20 10:25:47;;;;;;;;;;;;;;;19.77;60.83;101282.03;5042441;28;19927;-80
2022/08/20 10:28:12;;;;;;;;;;;;;;;19.86;59.89;101286.84;5046412;28;20561;-79
2022/08/20 10:30:38;;;;;;;;;;;;;;;19.91;59.45;101286.59;5042317;28;20560;-79
2022/08/20 10:33:03;;;;;;;;;;;;;;;19.95;59.26;101291.66;5036184;28;20028;-80
2022/08/20 10:35:28;;;;;;;;;;;;;;;19.92;58.95;101290.97;5045008;28;20510;-80
2022/08/20 10:37:54;;;;;;;;;;;;;;;19.91;59.73;101294.50;5035716;28;20432;-80
2022/08/20 10:40:19;;;;;;;;;;;;;;;19.97;59.72;101295.06;5014449;28;19979;-80
2022/08/20 10:42:44;;;;;;;;;;;;;;;19.99;60.06;101290.56;5016414;28;20007;-80
2022/08/20 10:45:13;;;;;;;;;;;;;;;20.03;60.37;101285.97;5024243;28;21361;-80
2022/08/20 10:47:39;;;;;;;;;;;;;;;20.04;59.30;101285.91;5021322;28;20291;-79
2022/08/20 10:50:06;;;;;;;;;;;;;;;19.98;59.94;101288.84;5023394;28;19967;-78
2022/08/20 10:52:31;;;;;;;;;;;;;;;19.91;59.86;101282.19;5040807;28;19925;-78
2022/08/20 10:54:57;;;;;;;;;;;;;;;19.91;60.21;101286.59;5045832;28;19982;-78
2022/08/20 10:57:24;;;;;;;;;;;;;;;19.99;60.83;101290.56;5031513;28;19931;-78
2022/08/20 10:59:50;;;;;;;;;;;;;;;20.01;60.54;101286.06;5017807;28;19922;-78
2022/08/20 11:02:16;;;;;;;;;;;;;;;19.96;60.02;101293.38;5027730;28;19929;-78
2022/08/20 11:04:42;;;;;;;;;;;;;;;20.01;59.90;101288.69;5036382;28;19913;-78
2022/08/20 11:07:16;;;;;;;;;;;;;;;20.06;59.99;101289.31;5042156;28;20415;-78
2022/08/20 11:09:42;;;;;;;;;;;;;;;20.16;60.58;101287.94;5018919;28;20298;-78
2022/08/20 11:12:08;;;;;;;;;;;;;;;20.24;60.53;101287.53;5018061;28;19925;-78
2022/08/20 11:14:33;;;;;;;;;;;;;;;20.17;60.37;101286.16;4961056;28;1892542;-78
2022/08/20 11:16:59;;;;;;;;;;;;;;;20.22;60.50;101287.63;5017555;28;19925;-78
2022/08/20 11:19:24;;;;;;;;;;;;;;;20.29;60.17;101288.16;5036897;28;19913;-78
2022/08/20 11:21:50;;;;;;;;;;;;;;;20.29;58.70;101288.97;5032491;28;20045;-78
2022/08/20 11:24:15;;;;;;;;;;;;;;;20.30;57.50;101282.78;5036346;28;19986;-78
2022/08/20 11:26:40;;;;;;;;;;;;;;;20.31;59.51;101291.56;5030102;28;19929;-78
2022/08/20 11:29:06;;;;;;;;;;;;;;;20.18;60.00;101290.47;5033709;28;20416;-78
2022/08/20 11:31:31;;;;;;;;;;;;;;;20.24;59.93;101292.81;5033487;28;20321;-78
2022/08/20 11:33:56;;;;;;;;;;;;;;;20.31;59.09;101294.19;5030256;28;19933;-78
2022/08/20 11:36:25;;;;;;;;;;;;;;;20.35;59.69;101301.84;5036803;28;19967;-78
2022/08/20 11:38:50;;;;;;;;;;;;;;;20.30;59.38;101300.38;5029723;28;20045;-78
2022/08/20 11:41:16;;;;;;;;;;;;;;;20.26;59.49;101294.41;5032236;28;19929;-78
2022/08/20 11:43:41;;;;;;;;;;;;;;;20.41;58.91;101282.22;5019765;28;19978;-78
2022/08/20 11:46:06;;;;;;;;;;;;;;;20.46;57.72;101289.88;5042011;28;19929;-78
2022/08/20 11:48:32;;;;;;;;;;;;;;;20.43;57.37;101284.75;5037836;28;19924;-78
2022/08/20 11:50:57;;;;;;;;;;;;;;;20.37;57.20;101285.09;5023142;28;19925;-78
2022/08/20 11:53:22;;;;;;;;;;;;;;;20.34;56.64;101283.47;5036724;28;19929;-78
2022/08/20 11:55:48;;;;;;;;;;;;;;;20.34;56.82;101286.13;5040735;28;19924;-78
2022/08/20 11:58:13;;;;;;;;;;;;;;;20.54;55.78;101283.25;5040760;28;19925;-78
2022/08/20 12:00:38;;;;;;;;;;;;;;;20.49;56.41;101276.53;5045874;28;19928;-78
2022/08/20 12:03:07;;;;;;;;;;;;;;;20.50;57.31;101289.63;5038852;28;19921;-78
2022/08/20 12:05:32;;;;;;;;;;;;;;;20.35;57.79;101286.00;5042761;28;19917;-78
2022/08/20 12:08:01;;;;;;;;;;;;;;;20.37;57.79;101287.72;5036089;28;20442;-77
2022/08/20 12:10:27;;;;;;;;;;;;;;;20.42;58.21;101280.41;5013985;28;19923;-77
2022/08/20 12:12:53;;;;;;;;;;;;;;;20.37;58.81;101285.09;5037244;28;20016;-77
2022/08/20 12:15:18;;;;;;;;;;;;;;;20.32;58.37;101288.81;5037335;28;20022;-77
2022/08/20 12:17:44;;;;;;;;;;;;;;;20.33;57.85;101285.25;5044351;28;19928;-77
2022/08/20 12:20:10;;;;;;;;;;;;;;;20.33;57.02;101282.63;5047157;28;19920;-77
2022/08/20 12:22:35;;;;;;;;;;;;;;;20.39;57.32;101289.34;5046414;28;19925;-77
2022/08/20 12:25:01;;;;;;;;;;;;;;;20.42;56.80;101285.69;5037072;28;20348;-77
2022/08/20 12:27:28;;;;;;;;;;;;;;;20.46;55.51;101280.19;5038851;28;20052;-77
2022/08/20 12:29:54;;;;;;;;;;;;;;;20.50;55.09;101284.34;5037505;28;19936;-77
2022/08/20 12:32:20;;;;;;;;;;;;;;;20.57;56.19;101287.50;5042138;28;20016;-78
2022/08/20 12:34:46;;;;;;;;;;;;;;;20.51;55.07;101286.06;5042161;28;20374;-78
2022/08/20 12:37:15;;;;;;;;;;;;;;;20.51;54.69;101279.91;5041784;28;19924;-78
2022/08/20 12:39:42;;;;;;;;;;;;;;;20.52;54.47;101282.50;5010732;28;19925;-78